sensor_id;sensor_type;location;lat;lon;timestamp;P1;durP1;ratioP1;P2;durP2;ratioP2
9970;SDS011;5026;51.494;11.974;2023-03-01T00:01:26;14.37;;;7.30;;
9970;SDS011;5026;51.494;11.974;2023-03-01T00:03:54;11.97;;;7.03;;
9970;SDS011;5026;51.494;11.974;2023-03-01T00:06:22;10.27;;;6.90;;
9970;SDS011;5026;51.494;11.974;2023-03-01T00:08:50;10.70;;;6.60;;
9970;SDS011;5026;51.494;11.974;2023-03-01T00:11:18;11.83;;;6.67;;
9970;SDS011;5026;51.494;11.974;2023-03-01T00:13:47;13.30;;;6.83;;
9970;SDS011;5026;51.494;11.974;2023-03-01T00:16:16;12.27;;;6.20;;
9970;SDS011;5026;51.494;11.974;2023-03-01T00:18:47;12.17;;;6.63;;
9970;SDS011;5026;51.494;11.974;2023-03-01T00:21:15;12.80;;;6.97;;
9970;SDS011;5026;51.494;11.974;2023-03-01T00:23:44;10.43;;;6.13;;
9970;SDS011;5026;51.494;11.974;2023-03-01T00:26:14;11.70;;;6.93;;
9970;SDS011;5026;51.494;11.974;2023-03-01T00:28:41;13.17;;;6.10;;
9970;SDS011;5026;51.494;11.974;2023-03-01T00:31:09;10.13;;;6.50;;
9970;SDS011;5026;51.494;11.974;2023-03-01T00:33:38;8.97;;;6.47;;
9970;SDS011;5026;51.494;11.974;2023-03-01T00:36:05;11.23;;;6.53;;
9970;SDS011;5026;51.494;11.974;2023-03-01T00:38:34;9.90;;;6.37;;
9970;SDS011;5026;51.494;11.974;2023-03-01T00:41:04;11.70;;;7.37;;
9970;SDS011;5026;51.494;11.974;2023-03-01T00:43:32;11.60;;;6.40;;
9970;SDS011;5026;51.494;11.974;2023-03-01T00:46:01;11.70;;;6.00;;
9970;SDS011;5026;51.494;11.974;2023-03-01T00:48:29;11.60;;;6.63;;
9970;SDS011;5026;51.494;11.974;2023-03-01T00:50:56;15.57;;;6.97;;
9970;SDS011;5026;51.494;11.974;2023-03-01T00:53:23;11.07;;;6.23;;
9970;SDS011;5026;51.494;11.974;2023-03-01T00:55:50;10.93;;;6.60;;
9970;SDS011;5026;51.494;11.974;2023-03-01T00:58:18;11.83;;;6.77;;
9970;SDS011;5026;51.494;11.974;2023-03-01T01:00:45;12.03;;;7.17;;
9970;SDS011;5026;51.494;11.974;2023-03-01T01:03:11;14.93;;;6.83;;
9970;SDS011;5026;51.494;11.974;2023-03-01T01:05:38;16.40;;;7.13;;
9970;SDS011;5026;51.494;11.974;2023-03-01T01:08:05;14.23;;;6.70;;
9970;SDS011;5026;51.494;11.974;2023-03-01T01:10:33;10.73;;;6.83;;
9970;SDS011;5026;51.494;11.974;2023-03-01T01:13:00;12.70;;;7.20;;
9970;SDS011;5026;51.494;11.974;2023-03-01T01:15:28;14.47;;;7.13;;
9970;SDS011;5026;51.494;11.974;2023-03-01T01:17:55;13.13;;;6.80;;
9970;SDS011;5026;51.494;11.974;2023-03-01T01:20:22;12.33;;;6.80;;
9970;SDS011;5026;51.494;11.974;2023-03-01T01:22:49;11.97;;;6.57;;
9970;SDS011;5026;51.494;11.974;2023-03-01T01:25:17;11.63;;;6.87;;
9970;SDS011;5026;51.494;11.974;2023-03-01T01:27:45;11.63;;;6.80;;
9970;SDS011;5026;51.494;11.974;2023-03-01T01:30:12;11.43;;;6.70;;
9970;SDS011;5026;51.494;11.974;2023-03-01T01:32:40;14.80;;;6.43;;
9970;SDS011;5026;51.494;11.974;2023-03-01T01:35:07;10.07;;;6.97;;
9970;SDS011;5026;51.494;11.974;2023-03-01T01:37:34;12.70;;;7.07;;
9970;SDS011;5026;51.494;11.974;2023-03-01T01:40:02;11.80;;;6.50;;
9970;SDS011;5026;51.494;11.974;2023-03-01T01:42:30;11.03;;;6.67;;
9970;SDS011;5026;51.494;11.974;2023-03-01T01:47:59;13.83;;;7.20;;
9970;SDS011;5026;51.494;11.974;2023-03-01T01:50:29;17.47;;;7.93;;
9970;SDS011;5026;51.494;11.974;2023-03-01T01:53:04;10.87;;;7.13;;
9970;SDS011;5026;51.494;11.974;2023-03-01T01:55:32;14.47;;;7.00;;
9970;SDS011;5026;51.494;11.974;2023-03-01T01:58:02;14.67;;;7.90;;
9970;SDS011;5026;51.494;11.974;2023-03-01T02:00:31;14.57;;;7.90;;
9970;SDS011;5026;51.494;11.974;2023-03-01T02:03:01;14.90;;;7.70;;
9970;SDS011;5026;51.494;11.974;2023-03-01T02:05:33;12.87;;;7.23;;
9970;SDS011;5026;51.494;11.974;2023-03-01T02:08:04;12.70;;;7.20;;
9970;SDS011;5026;51.494;11.974;2023-03-01T02:10:32;12.97;;;6.77;;
9970;SDS011;5026;51.494;11.974;2023-03-01T02:13:00;10.47;;;6.93;;
9970;SDS011;5026;51.494;11.974;2023-03-01T02:15:31;15.00;;;7.00;;
9970;SDS011;5026;51.494;11.974;2023-03-01T02:18:00;11.33;;;6.90;;
9970;SDS011;5026;51.494;11.974;2023-03-01T02:20:29;12.10;;;6.90;;
9970;SDS011;5026;51.494;11.974;2023-03-01T02:23:02;14.40;;;7.30;;
9970;SDS011;5026;51.494;11.974;2023-03-01T02:25:33;11.80;;;6.93;;
9970;SDS011;5026;51.494;11.974;2023-03-01T02:28:05;11.97;;;6.50;;
9970;SDS011;5026;51.494;11.974;2023-03-01T02:30:46;9.03;;;6.20;;
9970;SDS011;5026;51.494;11.974;2023-03-01T02:33:29;10.50;;;6.07;;
9970;SDS011;5026;51.494;11.974;2023-03-01T02:35:57;10.97;;;6.50;;
9970;SDS011;5026;51.494;11.974;2023-03-01T02:38:26;15.27;;;6.73;;
9970;SDS011;5026;51.494;11.974;2023-03-01T02:40:54;14.20;;;6.80;;
9970;SDS011;5026;51.494;11.974;2023-03-01T02:43:22;13.97;;;7.33;;
9970;SDS011;5026;51.494;11.974;2023-03-01T02:45:57;13.60;;;7.00;;
9970;SDS011;5026;51.494;11.974;2023-03-01T02:48:25;11.77;;;7.00;;
9970;SDS011;5026;51.494;11.974;2023-03-01T02:50:54;12.87;;;6.67;;
9970;SDS011;5026;51.494;11.974;2023-03-01T02:53:34;10.20;;;6.57;;
9970;SDS011;5026;51.494;11.974;2023-03-01T02:56:05;12.87;;;6.30;;
9970;SDS011;5026;51.494;11.974;2023-03-01T02:58:37;10.67;;;6.67;;
9970;SDS011;5026;51.494;11.974;2023-03-01T03:01:12;9.67;;;5.93;;
9970;SDS011;5026;51.494;11.974;2023-03-01T03:03:40;12.23;;;6.63;;
9970;SDS011;5026;51.494;11.974;2023-03-01T03:06:07;15.47;;;7.07;;
9970;SDS011;5026;51.494;11.974;2023-03-01T03:08:35;11.90;;;6.93;;
9970;SDS011;5026;51.494;11.974;2023-03-01T03:11:02;11.07;;;6.37;;
9970;SDS011;5026;51.494;11.974;2023-03-01T03:13:29;11.67;;;6.97;;
9970;SDS011;5026;51.494;11.974;2023-03-01T03:15:57;13.33;;;7.07;;
9970;SDS011;5026;51.494;11.974;2023-03-01T03:18:26;14.07;;;6.87;;
9970;SDS011;5026;51.494;11.974;2023-03-01T03:20:53;11.03;;;6.60;;
9970;SDS011;5026;51.494;11.974;2023-03-01T03:23:20;11.27;;;6.87;;
9970;SDS011;5026;51.494;11.974;2023-03-01T03:25:48;10.97;;;6.30;;
9970;SDS011;5026;51.494;11.974;2023-03-01T03:28:16;11.50;;;6.70;;
9970;SDS011;5026;51.494;11.974;2023-03-01T03:30:43;12.10;;;5.90;;
9970;SDS011;5026;51.494;11.974;2023-03-01T03:33:11;12.43;;;7.00;;
9970;SDS011;5026;51.494;11.974;2023-03-01T03:35:41;10.83;;;6.97;;
9970;SDS011;5026;51.494;11.974;2023-03-01T03:38:10;11.73;;;7.07;;
9970;SDS011;5026;51.494;11.974;2023-03-01T03:40:42;13.40;;;7.33;;
9970;SDS011;5026;51.494;11.974;2023-03-01T03:43:11;12.20;;;6.97;;
9970;SDS011;5026;51.494;11.974;2023-03-01T03:45:39;10.47;;;7.03;;
9970;SDS011;5026;51.494;11.974;2023-03-01T03:48:06;11.33;;;6.40;;
9970;SDS011;5026;51.494;11.974;2023-03-01T03:50:35;8.77;;;6.23;;
9970;SDS011;5026;51.494;11.974;2023-03-01T03:53:04;14.37;;;6.77;;
9970;SDS011;5026;51.494;11.974;2023-03-01T03:55:32;12.43;;;7.00;;
9970;SDS011;5026;51.494;11.974;2023-03-01T03:58:00;10.43;;;6.87;;
9970;SDS011;5026;51.494;11.974;2023-03-01T04:00:31;13.43;;;6.67;;
9970;SDS011;5026;51.494;11.974;2023-03-01T04:03:00;12.37;;;6.63;;
9970;SDS011;5026;51.494;11.974;2023-03-01T04:05:27;10.90;;;6.73;;
9970;SDS011;5026;51.494;11.974;2023-03-01T04:07:54;10.27;;;6.20;;
9970;SDS011;5026;51.494;11.974;2023-03-01T04:10:28;11.37;;;6.70;;
9970;SDS011;5026;51.494;11.974;2023-03-01T04:12:57;12.47;;;7.80;;
9970;SDS011;5026;51.494;11.974;2023-03-01T04:15:24;11.97;;;7.13;;
9970;SDS011;5026;51.494;11.974;2023-03-01T04:17:52;12.50;;;6.70;;
9970;SDS011;5026;51.494;11.974;2023-03-01T04:20:21;17.93;;;7.80;;
9970;SDS011;5026;51.494;11.974;2023-03-01T04:22:51;10.67;;;7.03;;
9970;SDS011;5026;51.494;11.974;2023-03-01T04:25:19;11.43;;;7.67;;
9970;SDS011;5026;51.494;11.974;2023-03-01T04:27:47;13.27;;;6.83;;
9970;SDS011;5026;51.494;11.974;2023-03-01T04:30:14;13.30;;;6.83;;
9970;SDS011;5026;51.494;11.974;2023-03-01T04:32:41;13.60;;;7.20;;
9970;SDS011;5026;51.494;11.974;2023-03-01T04:35:08;13.57;;;7.30;;
9970;SDS011;5026;51.494;11.974;2023-03-01T04:37:35;12.07;;;7.10;;
9970;SDS011;5026;51.494;11.974;2023-03-01T04:40:02;10.83;;;7.40;;
9970;SDS011;5026;51.494;11.974;2023-03-01T04:42:37;12.77;;;7.10;;
9970;SDS011;5026;51.494;11.974;2023-03-01T04:45:07;11.77;;;6.53;;
9970;SDS011;5026;51.494;11.974;2023-03-01T04:47:38;12.23;;;6.57;;
9970;SDS011;5026;51.494;11.974;2023-03-01T04:50:06;10.07;;;6.97;;
9970;SDS011;5026;51.494;11.974;2023-03-01T04:52:34;15.23;;;7.67;;
9970;SDS011;5026;51.494;11.974;2023-03-01T04:55:01;12.60;;;6.57;;
9970;SDS011;5026;51.494;11.974;2023-03-01T04:57:28;14.33;;;7.53;;
9970;SDS011;5026;51.494;11.974;2023-03-01T04:59:55;14.80;;;7.57;;
9970;SDS011;5026;51.494;11.974;2023-03-01T05:02:24;16.53;;;7.53;;
9970;SDS011;5026;51.494;11.974;2023-03-01T05:04:51;11.63;;;7.10;;
9970;SDS011;5026;51.494;11.974;2023-03-01T05:07:22;13.73;;;7.53;;
9970;SDS011;5026;51.494;11.974;2023-03-01T05:09:49;11.70;;;6.87;;
9970;SDS011;5026;51.494;11.974;2023-03-01T05:12:16;16.40;;;7.47;;
9970;SDS011;5026;51.494;11.974;2023-03-01T05:14:43;13.27;;;7.40;;
9970;SDS011;5026;51.494;11.974;2023-03-01T05:17:10;13.07;;;7.80;;
9970;SDS011;5026;51.494;11.974;2023-03-01T05:19:38;12.70;;;7.30;;
9970;SDS011;5026;51.494;11.974;2023-03-01T05:22:07;14.97;;;7.70;;
9970;SDS011;5026;51.494;11.974;2023-03-01T05:24:34;13.17;;;8.03;;
9970;SDS011;5026;51.494;11.974;2023-03-01T05:27:03;13.40;;;7.57;;
9970;SDS011;5026;51.494;11.974;2023-03-01T05:29:31;13.10;;;8.00;;
9970;SDS011;5026;51.494;11.974;2023-03-01T05:32:00;14.17;;;7.97;;
9970;SDS011;5026;51.494;11.974;2023-03-01T05:34:28;13.27;;;8.10;;
9970;SDS011;5026;51.494;11.974;2023-03-01T05:36:58;14.47;;;8.27;;
9970;SDS011;5026;51.494;11.974;2023-03-01T05:39:26;13.67;;;7.60;;
9970;SDS011;5026;51.494;11.974;2023-03-01T05:41:54;13.37;;;7.90;;
9970;SDS011;5026;51.494;11.974;2023-03-01T05:44:22;17.33;;;7.97;;
9970;SDS011;5026;51.494;11.974;2023-03-01T05:46:50;15.83;;;8.33;;
9970;SDS011;5026;51.494;11.974;2023-03-01T05:49:18;17.33;;;8.13;;
9970;SDS011;5026;51.494;11.974;2023-03-01T05:51:47;13.80;;;7.27;;
9970;SDS011;5026;51.494;11.974;2023-03-01T05:54:17;16.97;;;8.23;;
9970;SDS011;5026;51.494;11.974;2023-03-01T05:56:44;13.83;;;7.93;;
9970;SDS011;5026;51.494;11.974;2023-03-01T05:59:12;13.77;;;7.23;;
9970;SDS011;5026;51.494;11.974;2023-03-01T06:01:41;13.93;;;7.60;;
9970;SDS011;5026;51.494;11.974;2023-03-01T06:04:08;12.53;;;7.67;;
9970;SDS011;5026;51.494;11.974;2023-03-01T06:06:35;18.87;;;7.70;;
9970;SDS011;5026;51.494;11.974;2023-03-01T06:09:03;16.97;;;9.23;;
9970;SDS011;5026;51.494;11.974;2023-03-01T06:11:34;16.47;;;8.90;;
9970;SDS011;5026;51.494;11.974;2023-03-01T06:14:02;14.33;;;8.03;;
9970;SDS011;5026;51.494;11.974;2023-03-01T06:16:29;19.93;;;8.10;;
9970;SDS011;5026;51.494;11.974;2023-03-01T06:18:56;14.67;;;8.10;;
9970;SDS011;5026;51.494;11.974;2023-03-01T06:21:23;13.13;;;8.07;;
9970;SDS011;5026;51.494;11.974;2023-03-01T06:23:49;13.70;;;8.10;;
9970;SDS011;5026;51.494;11.974;2023-03-01T06:26:16;16.17;;;8.37;;
9970;SDS011;5026;51.494;11.974;2023-03-01T06:28:45;16.03;;;8.53;;
9970;SDS011;5026;51.494;11.974;2023-03-01T06:31:12;13.67;;;7.73;;
9970;SDS011;5026;51.494;11.974;2023-03-01T06:33:39;14.30;;;7.97;;
9970;SDS011;5026;51.494;11.974;2023-03-01T06:36:06;14.33;;;7.80;;
9970;SDS011;5026;51.494;11.974;2023-03-01T06:38:35;13.43;;;7.80;;
9970;SDS011;5026;51.494;11.974;2023-03-01T06:41:02;14.50;;;8.10;;
9970;SDS011;5026;51.494;11.974;2023-03-01T06:43:29;14.77;;;8.10;;
9970;SDS011;5026;51.494;11.974;2023-03-01T06:45:57;17.50;;;8.40;;
9970;SDS011;5026;51.494;11.974;2023-03-01T06:48:24;14.70;;;8.37;;
9970;SDS011;5026;51.494;11.974;2023-03-01T06:50:51;14.40;;;7.60;;
9970;SDS011;5026;51.494;11.974;2023-03-01T06:53:18;13.33;;;7.90;;
9970;SDS011;5026;51.494;11.974;2023-03-01T06:55:45;15.77;;;7.70;;
9970;SDS011;5026;51.494;11.974;2023-03-01T06:58:12;12.60;;;7.57;;
9970;SDS011;5026;51.494;11.974;2023-03-01T07:00:39;12.43;;;7.10;;
9970;SDS011;5026;51.494;11.974;2023-03-01T07:03:10;15.67;;;8.10;;
9970;SDS011;5026;51.494;11.974;2023-03-01T07:05:37;13.67;;;7.37;;
9970;SDS011;5026;51.494;11.974;2023-03-01T07:08:04;12.43;;;7.23;;
9970;SDS011;5026;51.494;11.974;2023-03-01T07:10:31;15.63;;;7.53;;
9970;SDS011;5026;51.494;11.974;2023-03-01T07:12:58;17.03;;;7.63;;
9970;SDS011;5026;51.494;11.974;2023-03-01T07:15:26;14.03;;;7.60;;
9970;SDS011;5026;51.494;11.974;2023-03-01T07:17:53;12.23;;;7.50;;
9970;SDS011;5026;51.494;11.974;2023-03-01T07:20:23;16.70;;;8.43;;
9970;SDS011;5026;51.494;11.974;2023-03-01T07:22:50;15.40;;;8.10;;
9970;SDS011;5026;51.494;11.974;2023-03-01T07:25:17;15.73;;;7.97;;
9970;SDS011;5026;51.494;11.974;2023-03-01T07:27:44;13.73;;;7.70;;
9970;SDS011;5026;51.494;11.974;2023-03-01T07:30:15;15.70;;;7.97;;
9970;SDS011;5026;51.494;11.974;2023-03-01T07:32:43;14.10;;;7.90;;
9970;SDS011;5026;51.494;11.974;2023-03-01T07:35:10;13.97;;;8.23;;
9970;SDS011;5026;51.494;11.974;2023-03-01T07:37:38;13.43;;;7.50;;
9970;SDS011;5026;51.494;11.974;2023-03-01T07:40:06;16.53;;;7.90;;
9970;SDS011;5026;51.494;11.974;2023-03-01T07:42:34;14.73;;;7.87;;
9970;SDS011;5026;51.494;11.974;2023-03-01T07:45:01;12.77;;;7.27;;
9970;SDS011;5026;51.494;11.974;2023-03-01T07:47:28;13.63;;;8.43;;
9970;SDS011;5026;51.494;11.974;2023-03-01T07:49:55;15.43;;;8.40;;
9970;SDS011;5026;51.494;11.974;2023-03-01T07:52:22;16.27;;;7.63;;
9970;SDS011;5026;51.494;11.974;2023-03-01T07:54:50;11.77;;;7.13;;
9970;SDS011;5026;51.494;11.974;2023-03-01T07:57:17;11.90;;;7.10;;
9970;SDS011;5026;51.494;11.974;2023-03-01T07:59:44;11.80;;;7.57;;
9970;SDS011;5026;51.494;11.974;2023-03-01T08:02:11;10.13;;;7.07;;
9970;SDS011;5026;51.494;11.974;2023-03-01T08:04:38;11.93;;;7.77;;
9970;SDS011;5026;51.494;11.974;2023-03-01T08:07:05;13.10;;;7.87;;
9970;SDS011;5026;51.494;11.974;2023-03-01T08:09:34;14.53;;;7.93;;
9970;SDS011;5026;51.494;11.974;2023-03-01T08:12:03;10.27;;;6.67;;
9970;SDS011;5026;51.494;11.974;2023-03-01T08:14:31;12.83;;;7.93;;
9970;SDS011;5026;51.494;11.974;2023-03-01T08:16:58;14.13;;;7.63;;
9970;SDS011;5026;51.494;11.974;2023-03-01T08:19:25;17.13;;;8.80;;
9970;SDS011;5026;51.494;11.974;2023-03-01T08:21:53;13.63;;;8.27;;
9970;SDS011;5026;51.494;11.974;2023-03-01T08:24:20;15.10;;;8.03;;
9970;SDS011;5026;51.494;11.974;2023-03-01T08:26:47;14.03;;;8.43;;
9970;SDS011;5026;51.494;11.974;2023-03-01T08:29:16;13.20;;;8.17;;
9970;SDS011;5026;51.494;11.974;2023-03-01T08:31:43;14.83;;;8.67;;
9970;SDS011;5026;51.494;11.974;2023-03-01T08:34:11;14.03;;;7.93;;
9970;SDS011;5026;51.494;11.974;2023-03-01T08:36:41;15.40;;;8.80;;
9970;SDS011;5026;51.494;11.974;2023-03-01T08:39:09;13.13;;;7.95;;
9970;SDS011;5026;51.494;11.974;2023-03-01T08:41:37;12.77;;;8.52;;
9970;SDS011;5026;51.494;11.974;2023-03-01T08:44:04;12.20;;;8.10;;
9970;SDS011;5026;51.494;11.974;2023-03-01T08:46:34;14.00;;;8.50;;
9970;SDS011;5026;51.494;11.974;2023-03-01T08:49:03;15.27;;;8.07;;
9970;SDS011;5026;51.494;11.974;2023-03-01T08:51:30;12.25;;;8.43;;
9970;SDS011;5026;51.494;11.974;2023-03-01T08:54:01;15.77;;;8.53;;
9970;SDS011;5026;51.494;11.974;2023-03-01T08:56:28;17.07;;;10.47;;
9970;SDS011;5026;51.494;11.974;2023-03-01T08:58:55;16.97;;;9.00;;
9970;SDS011;5026;51.494;11.974;2023-03-01T09:01:22;14.53;;;9.03;;
9970;SDS011;5026;51.494;11.974;2023-03-01T09:03:50;13.90;;;9.10;;
9970;SDS011;5026;51.494;11.974;2023-03-01T09:06:18;13.87;;;9.30;;
9970;SDS011;5026;51.494;11.974;2023-03-01T09:08:46;18.43;;;9.90;;
9970;SDS011;5026;51.494;11.974;2023-03-01T09:11:15;15.97;;;9.67;;
9970;SDS011;5026;51.494;11.974;2023-03-01T09:13:43;16.63;;;9.67;;
9970;SDS011;5026;51.494;11.974;2023-03-01T09:16:11;16.00;;;9.03;;
9970;SDS011;5026;51.494;11.974;2023-03-01T09:18:39;16.80;;;10.00;;
9970;SDS011;5026;51.494;11.974;2023-03-01T09:21:08;16.13;;;10.13;;
9970;SDS011;5026;51.494;11.974;2023-03-01T09:23:37;16.67;;;10.20;;
9970;SDS011;5026;51.494;11.974;2023-03-01T09:26:05;16.33;;;10.13;;
9970;SDS011;5026;51.494;11.974;2023-03-01T09:28:33;15.47;;;9.23;;
9970;SDS011;5026;51.494;11.974;2023-03-01T09:31:01;21.00;;;11.00;;
9970;SDS011;5026;51.494;11.974;2023-03-01T09:33:29;14.53;;;9.50;;
9970;SDS011;5026;51.494;11.974;2023-03-01T09:35:57;15.10;;;9.33;;
9970;SDS011;5026;51.494;11.974;2023-03-01T09:38:26;16.50;;;10.13;;
9970;SDS011;5026;51.494;11.974;2023-03-01T09:40:53;17.80;;;9.63;;
9970;SDS011;5026;51.494;11.974;2023-03-01T09:43:21;17.63;;;9.87;;
9970;SDS011;5026;51.494;11.974;2023-03-01T09:45:52;15.77;;;9.60;;
9970;SDS011;5026;51.494;11.974;2023-03-01T09:48:21;14.30;;;8.60;;
9970;SDS011;5026;51.494;11.974;2023-03-01T09:50:52;16.60;;;10.13;;
9970;SDS011;5026;51.494;11.974;2023-03-01T09:53:20;17.63;;;10.20;;
9970;SDS011;5026;51.494;11.974;2023-03-01T09:55:52;20.60;;;11.13;;
9970;SDS011;5026;51.494;11.974;2023-03-01T09:58:38;15.10;;;9.07;;
9970;SDS011;5026;51.494;11.974;2023-03-01T10:01:21;20.03;;;11.63;;
9970;SDS011;5026;51.494;11.974;2023-03-01T10:04:05;17.57;;;10.40;;
9970;SDS011;5026;51.494;11.974;2023-03-01T10:06:39;17.97;;;9.40;;
9970;SDS011;5026;51.494;11.974;2023-03-01T10:09:12;20.40;;;9.57;;
9970;SDS011;5026;51.494;11.974;2023-03-01T10:11:44;18.17;;;10.77;;
9970;SDS011;5026;51.494;11.974;2023-03-01T10:14:15;19.57;;;10.53;;
9970;SDS011;5026;51.494;11.974;2023-03-01T10:16:55;18.17;;;9.13;;
9970;SDS011;5026;51.494;11.974;2023-03-01T10:19:29;16.27;;;10.23;;
9970;SDS011;5026;51.494;11.974;2023-03-01T10:22:00;17.93;;;9.87;;
9970;SDS011;5026;51.494;11.974;2023-03-01T10:24:32;17.43;;;10.10;;
9970;SDS011;5026;51.494;11.974;2023-03-01T10:27:04;17.03;;;9.27;;
9970;SDS011;5026;51.494;11.974;2023-03-01T10:29:34;16.53;;;9.50;;
9970;SDS011;5026;51.494;11.974;2023-03-01T10:32:06;14.77;;;9.27;;
9970;SDS011;5026;51.494;11.974;2023-03-01T10:34:33;17.87;;;10.10;;
9970;SDS011;5026;51.494;11.974;2023-03-01T10:37:08;17.67;;;9.03;;
9970;SDS011;5026;51.494;11.974;2023-03-01T10:39:37;19.23;;;9.97;;
9970;SDS011;5026;51.494;11.974;2023-03-01T10:42:25;16.60;;;9.67;;
9970;SDS011;5026;51.494;11.974;2023-03-01T10:44:55;17.00;;;8.93;;
9970;SDS011;5026;51.494;11.974;2023-03-01T10:47:22;19.17;;;10.60;;
9970;SDS011;5026;51.494;11.974;2023-03-01T10:49:51;15.17;;;9.43;;
9970;SDS011;5026;51.494;11.974;2023-03-01T10:52:22;19.10;;;9.60;;
9970;SDS011;5026;51.494;11.974;2023-03-01T10:54:52;15.43;;;8.87;;
9970;SDS011;5026;51.494;11.974;2023-03-01T10:57:31;16.70;;;9.90;;
9970;SDS011;5026;51.494;11.974;2023-03-01T11:00:09;15.03;;;9.20;;
9970;SDS011;5026;51.494;11.974;2023-03-01T11:02:47;18.23;;;10.13;;
9970;SDS011;5026;51.494;11.974;2023-03-01T11:05:16;18.60;;;10.40;;
9970;SDS011;5026;51.494;11.974;2023-03-01T11:07:50;16.63;;;9.13;;
9970;SDS011;5026;51.494;11.974;2023-03-01T11:10:21;14.97;;;9.13;;
9970;SDS011;5026;51.494;11.974;2023-03-01T11:12:51;17.10;;;8.37;;
9970;SDS011;5026;51.494;11.974;2023-03-01T11:15:20;18.67;;;9.40;;
9970;SDS011;5026;51.494;11.974;2023-03-01T11:17:50;12.30;;;7.87;;
9970;SDS011;5026;51.494;11.974;2023-03-01T11:20:20;13.80;;;7.57;;
9970;SDS011;5026;51.494;11.974;2023-03-01T11:22:53;10.83;;;6.73;;
9970;SDS011;5026;51.494;11.974;2023-03-01T11:25:23;13.87;;;6.97;;
9970;SDS011;5026;51.494;11.974;2023-03-01T11:27:54;14.30;;;7.17;;
9970;SDS011;5026;51.494;11.974;2023-03-01T11:30:23;8.97;;;6.30;;
9970;SDS011;5026;51.494;11.974;2023-03-01T11:33:13;11.10;;;6.37;;
9970;SDS011;5026;51.494;11.974;2023-03-01T11:35:47;12.80;;;6.33;;
9970;SDS011;5026;51.494;11.974;2023-03-01T11:38:22;10.20;;;6.30;;
9970;SDS011;5026;51.494;11.974;2023-03-01T11:40:52;10.00;;;5.80;;
9970;SDS011;5026;51.494;11.974;2023-03-01T11:43:32;9.77;;;5.93;;
9970;SDS011;5026;51.494;11.974;2023-03-01T11:52:20;10.67;;;6.57;;
9970;SDS011;5026;51.494;11.974;2023-03-01T11:54:55;10.17;;;5.90;;
9970;SDS011;5026;51.494;11.974;2023-03-01T11:57:36;10.93;;;6.73;;
9970;SDS011;5026;51.494;11.974;2023-03-01T12:00:19;10.70;;;6.10;;
9970;SDS011;5026;51.494;11.974;2023-03-01T12:03:23;11.83;;;6.80;;
9970;SDS011;5026;51.494;11.974;2023-03-01T12:06:00;12.90;;;6.87;;
9970;SDS011;5026;51.494;11.974;2023-03-01T12:08:39;12.13;;;7.20;;
9970;SDS011;5026;51.494;11.974;2023-03-01T12:11:16;13.27;;;5.93;;
9970;SDS011;5026;51.494;11.974;2023-03-01T12:17:07;11.00;;;6.90;;
9970;SDS011;5026;51.494;11.974;2023-03-01T12:19:54;9.43;;;5.93;;
9970;SDS011;5026;51.494;11.974;2023-03-01T12:22:30;10.37;;;6.30;;
9970;SDS011;5026;51.494;11.974;2023-03-01T12:25:07;8.27;;;5.57;;
9970;SDS011;5026;51.494;11.974;2023-03-01T12:27:59;10.07;;;6.07;;
9970;SDS011;5026;51.494;11.974;2023-03-01T12:34:01;14.17;;;6.57;;
9970;SDS011;5026;51.494;11.974;2023-03-01T12:36:37;14.37;;;6.87;;
9970;SDS011;5026;51.494;11.974;2023-03-01T12:39:24;10.83;;;6.20;;
9970;SDS011;5026;51.494;11.974;2023-03-01T12:42:05;9.03;;;6.10;;
9970;SDS011;5026;51.494;11.974;2023-03-01T12:44:50;9.30;;;5.50;;
9970;SDS011;5026;51.494;11.974;2023-03-01T12:47:43;8.80;;;5.93;;
9970;SDS011;5026;51.494;11.974;2023-03-01T12:50:35;7.47;;;4.80;;
9970;SDS011;5026;51.494;11.974;2023-03-01T12:53:07;10.53;;;6.43;;
9970;SDS011;5026;51.494;11.974;2023-03-01T12:55:45;9.07;;;6.07;;
9970;SDS011;5026;51.494;11.974;2023-03-01T12:58:16;10.37;;;6.07;;
9970;SDS011;5026;51.494;11.974;2023-03-01T13:00:53;9.80;;;5.73;;
9970;SDS011;5026;51.494;11.974;2023-03-01T13:03:41;9.80;;;5.50;;
9970;SDS011;5026;51.494;11.974;2023-03-01T13:06:21;9.90;;;6.13;;
9970;SDS011;5026;51.494;11.974;2023-03-01T13:08:57;14.30;;;8.30;;
9970;SDS011;5026;51.494;11.974;2023-03-01T13:11:31;9.53;;;5.80;;
9970;SDS011;5026;51.494;11.974;2023-03-01T13:16:59;7.83;;;5.17;;
9970;SDS011;5026;51.494;11.974;2023-03-01T13:19:27;8.60;;;5.77;;
9970;SDS011;5026;51.494;11.974;2023-03-01T13:21:58;8.17;;;5.17;;
9970;SDS011;5026;51.494;11.974;2023-03-01T13:24:29;8.17;;;5.93;;
9970;SDS011;5026;51.494;11.974;2023-03-01T13:27:21;9.33;;;5.27;;
9970;SDS011;5026;51.494;11.974;2023-03-01T13:29:55;13.00;;;5.90;;
9970;SDS011;5026;51.494;11.974;2023-03-01T13:32:25;7.83;;;4.97;;
9970;SDS011;5026;51.494;11.974;2023-03-01T13:34:54;10.00;;;5.30;;
9970;SDS011;5026;51.494;11.974;2023-03-01T13:37:24;8.77;;;4.80;;
9970;SDS011;5026;51.494;11.974;2023-03-01T13:39:55;10.90;;;5.63;;
9970;SDS011;5026;51.494;11.974;2023-03-01T13:42:34;11.07;;;5.90;;
9970;SDS011;5026;51.494;11.974;2023-03-01T13:45:14;6.93;;;4.83;;
9970;SDS011;5026;51.494;11.974;2023-03-01T13:47:47;8.10;;;4.80;;
9970;SDS011;5026;51.494;11.974;2023-03-01T13:50:20;7.77;;;5.07;;
9970;SDS011;5026;51.494;11.974;2023-03-01T13:52:52;6.60;;;4.93;;
9970;SDS011;5026;51.494;11.974;2023-03-01T13:55:23;7.47;;;4.67;;
9970;SDS011;5026;51.494;11.974;2023-03-01T13:57:54;8.33;;;4.80;;
9970;SDS011;5026;51.494;11.974;2023-03-01T14:00:28;7.97;;;5.23;;
9970;SDS011;5026;51.494;11.974;2023-03-01T14:03:02;8.20;;;4.40;;
9970;SDS011;5026;51.494;11.974;2023-03-01T14:05:36;9.07;;;4.30;;
9970;SDS011;5026;51.494;11.974;2023-03-01T14:08:17;6.87;;;4.33;;
9970;SDS011;5026;51.494;11.974;2023-03-01T14:10:51;6.63;;;3.73;;
9970;SDS011;5026;51.494;11.974;2023-03-01T14:13:27;5.63;;;4.53;;
9970;SDS011;5026;51.494;11.974;2023-03-01T14:16:13;5.73;;;3.97;;
9970;SDS011;5026;51.494;11.974;2023-03-01T14:18:51;5.53;;;4.07;;
9970;SDS011;5026;51.494;11.974;2023-03-01T14:21:28;7.30;;;3.90;;
9970;SDS011;5026;51.494;11.974;2023-03-01T14:23:57;7.70;;;4.43;;
9970;SDS011;5026;51.494;11.974;2023-03-01T14:26:24;8.73;;;3.57;;
9970;SDS011;5026;51.494;11.974;2023-03-01T14:28:52;7.73;;;3.33;;
9970;SDS011;5026;51.494;11.974;2023-03-01T14:31:31;7.73;;;3.47;;
9970;SDS011;5026;51.494;11.974;2023-03-01T14:34:01;9.00;;;3.50;;
9970;SDS011;5026;51.494;11.974;2023-03-01T14:36:29;6.77;;;4.00;;
9970;SDS011;5026;51.494;11.974;2023-03-01T14:38:59;6.63;;;3.57;;
9970;SDS011;5026;51.494;11.974;2023-03-01T14:41:30;5.47;;;3.00;;
9970;SDS011;5026;51.494;11.974;2023-03-01T14:44:01;4.77;;;3.17;;
9970;SDS011;5026;51.494;11.974;2023-03-01T14:46:32;4.90;;;3.00;;
9970;SDS011;5026;51.494;11.974;2023-03-01T14:49:02;6.07;;;3.70;;
9970;SDS011;5026;51.494;11.974;2023-03-01T14:51:35;6.57;;;3.37;;
9970;SDS011;5026;51.494;11.974;2023-03-01T14:54:05;5.47;;;3.67;;
9970;SDS011;5026;51.494;11.974;2023-03-01T14:56:44;4.73;;;3.30;;
9970;SDS011;5026;51.494;11.974;2023-03-01T14:59:12;4.23;;;3.37;;
9970;SDS011;5026;51.494;11.974;2023-03-01T15:01:39;4.80;;;3.47;;
9970;SDS011;5026;51.494;11.974;2023-03-01T15:04:09;4.07;;;2.70;;
9970;SDS011;5026;51.494;11.974;2023-03-01T15:06:38;4.90;;;3.37;;
9970;SDS011;5026;51.494;11.974;2023-03-01T15:09:11;4.47;;;3.70;;
9970;SDS011;5026;51.494;11.974;2023-03-01T15:11:40;9.37;;;3.60;;
9970;SDS011;5026;51.494;11.974;2023-03-01T15:16:55;4.63;;;3.30;;
9970;SDS011;5026;51.494;11.974;2023-03-01T15:19:23;5.33;;;3.23;;
9970;SDS011;5026;51.494;11.974;2023-03-01T15:21:54;8.30;;;3.20;;
9970;SDS011;5026;51.494;11.974;2023-03-01T15:24:25;5.80;;;3.30;;
9970;SDS011;5026;51.494;11.974;2023-03-01T15:26:55;5.87;;;3.83;;
9970;SDS011;5026;51.494;11.974;2023-03-01T15:29:27;6.60;;;3.13;;
9970;SDS011;5026;51.494;11.974;2023-03-01T15:31:57;6.23;;;3.80;;